sensor_id;sensor_type;location;lat;lon;timestamp;temperature;humidity
22065;DHT22;11197;53.110;8.468;2023-08-01T00:00:43;17.40;99.90
22065;DHT22;11197;53.110;8.468;2023-08-01T00:03:09;17.40;99.90
22065;DHT22;11197;53.110;8.468;2023-08-01T00:05:35;17.30;99.90
22065;DHT22;11197;53.110;8.468;2023-08-01T00:08:01;17.30;99.90
22065;DHT22;11197;53.110;8.468;2023-08-01T00:10:28;17.30;99.90
22065;DHT22;11197;53.110;8.468;2023-08-01T00:12:54;17.30;99.90
22065;DHT22;11197;53.110;8.468;2023-08-01T00:15:20;17.40;99.90
22065;DHT22;11197;53.110;8.468;2023-08-01T00:17:46;17.30;99.90
22065;DHT22;11197;53.110;8.468;2023-08-01T00:20:13;17.30;99.90
22065;DHT22;11197;53.110;8.468;2023-08-01T00:22:39;17.30;99.90
22065;DHT22;11197;53.110;8.468;2023-08-01T00:25:06;17.20;99.90
22065;DHT22;11197;53.110;8.468;2023-08-01T00:27:32;17.20;99.90
22065;DHT22;11197;53.110;8.468;2023-08-01T00:29:59;17.20;99.90
22065;DHT22;11197;53.110;8.468;2023-08-01T00:32:26;17.20;99.90
22065;DHT22;11197;53.110;8.468;2023-08-01T00:34:52;17.20;99.90
22065;DHT22;11197;53.110;8.468;2023-08-01T00:37:18;17.20;99.90
22065;DHT22;11197;53.110;8.468;2023-08-01T00:39:45;17.20;99.90
22065;DHT22;11197;53.110;8.468;2023-08-01T00:42:11;17.20;99.90
22065;DHT22;11197;53.110;8.468;2023-08-01T00:44:37;17.20;99.90
22065;DHT22;11197;53.110;8.468;2023-08-01T00:47:03;17.20;99.90
22065;DHT22;11197;53.110;8.468;2023-08-01T00:49:29;17.20;99.90
22065;DHT22;11197;53.110;8.468;2023-08-01T00:51:54;17.20;99.90
22065;DHT22;11197;53.110;8.468;2023-08-01T00:54:20;17.20;99.90
22065;DHT22;11197;53.110;8.468;2023-08-01T00:56:46;17.10;99.90
22065;DHT22;11197;53.110;8.468;2023-08-01T00:59:12;17.10;99.90
22065;DHT22;11197;53.110;8.468;2023-08-01T01:01:38;17.10;99.90
22065;DHT22;11197;53.110;8.468;2023-08-01T01:04:04;17.10;99.90
22065;DHT22;11197;53.110;8.468;2023-08-01T01:06:39;17.10;99.90
22065;DHT22;11197;53.110;8.468;2023-08-01T01:09:19;17.10;99.90
22065;DHT22;11197;53.110;8.468;2023-08-01T01:11:46;17.10;99.90
22065;DHT22;11197;53.110;8.468;2023-08-01T01:14:12;17.10;99.90
22065;DHT22;11197;53.110;8.468;2023-08-01T01:16:38;17.10;99.90
22065;DHT22;11197;53.110;8.468;2023-08-01T01:19:07;17.10;99.90
22065;DHT22;11197;53.110;8.468;2023-08-01T01:24:44;17.00;99.90
22065;DHT22;11197;53.110;8.468;2023-08-01T01:27:12;17.10;99.90
22065;DHT22;11197;53.110;8.468;2023-08-01T01:29:38;17.00;99.90
22065;DHT22;11197;53.110;8.468;2023-08-01T01:32:05;17.00;99.90
22065;DHT22;11197;53.110;8.468;2023-08-01T01:34:32;17.00;99.90
22065;DHT22;11197;53.110;8.468;2023-08-01T01:36:58;16.90;99.90
22065;DHT22;11197;53.110;8.468;2023-08-01T01:39:24;17.00;99.90
22065;DHT22;11197;53.110;8.468;2023-08-01T01:41:49;17.00;99.90
22065;DHT22;11197;53.110;8.468;2023-08-01T01:44:15;16.90;99.90
22065;DHT22;11197;53.110;8.468;2023-08-01T01:46:41;16.90;99.90
22065;DHT22;11197;53.110;8.468;2023-08-01T01:49:06;16.90;99.90
22065;DHT22;11197;53.110;8.468;2023-08-01T01:51:32;16.90;99.90
22065;DHT22;11197;53.110;8.468;2023-08-01T01:53:58;16.90;99.90
22065;DHT22;11197;53.110;8.468;2023-08-01T01:56:24;16.90;99.90
22065;DHT22;11197;53.110;8.468;2023-08-01T01:58:51;16.90;99.90
22065;DHT22;11197;53.110;8.468;2023-08-01T02:01:18;16.90;99.90
22065;DHT22;11197;53.110;8.468;2023-08-01T02:03:45;16.90;99.90
22065;DHT22;11197;53.110;8.468;2023-08-01T02:06:13;16.90;99.90
22065;DHT22;11197;53.110;8.468;2023-08-01T02:08:39;16.90;99.90
22065;DHT22;11197;53.110;8.468;2023-08-01T02:11:06;16.90;99.90
22065;DHT22;11197;53.110;8.468;2023-08-01T02:13:33;16.90;99.90
22065;DHT22;11197;53.110;8.468;2023-08-01T02:15:59;16.90;99.90
22065;DHT22;11197;53.110;8.468;2023-08-01T02:18:25;16.90;99.90
22065;DHT22;11197;53.110;8.468;2023-08-01T02:20:52;16.90;99.90
22065;DHT22;11197;53.110;8.468;2023-08-01T02:23:18;17.00;99.90
22065;DHT22;11197;53.110;8.468;2023-08-01T02:25:44;16.90;99.90
22065;DHT22;11197;53.110;8.468;2023-08-01T02:28:10;17.00;99.90
22065;DHT22;11197;53.110;8.468;2023-08-01T02:30:38;17.00;99.90
22065;DHT22;11197;53.110;8.468;2023-08-01T02:33:04;16.90;99.90
22065;DHT22;11197;53.110;8.468;2023-08-01T02:35:30;16.90;99.90
22065;DHT22;11197;53.110;8.468;2023-08-01T02:37:56;16.90;99.90
22065;DHT22;11197;53.110;8.468;2023-08-01T02:40:22;16.90;99.90
22065;DHT22;11197;53.110;8.468;2023-08-01T02:42:48;16.90;99.90
22065;DHT22;11197;53.110;8.468;2023-08-01T02:45:15;16.90;99.90
22065;DHT22;11197;53.110;8.468;2023-08-01T02:47:42;16.90;99.90
22065;DHT22;11197;53.110;8.468;2023-08-01T02:50:08;16.90;99.90
22065;DHT22;11197;53.110;8.468;2023-08-01T02:52:33;16.90;99.90
22065;DHT22;11197;53.110;8.468;2023-08-01T02:54:59;16.90;99.90
22065;DHT22;11197;53.110;8.468;2023-08-01T02:57:25;16.90;99.90
22065;DHT22;11197;53.110;8.468;2023-08-01T02:59:51;16.90;99.90
22065;DHT22;11197;53.110;8.468;2023-08-01T03:02:17;16.90;99.90
22065;DHT22;11197;53.110;8.468;2023-08-01T03:04:43;16.90;99.90
22065;DHT22;11197;53.110;8.468;2023-08-01T03:07:08;16.80;99.90
22065;DHT22;11197;53.110;8.468;2023-08-01T03:09:34;16.80;99.90
22065;DHT22;11197;53.110;8.468;2023-08-01T03:12:00;16.80;99.90
22065;DHT22;11197;53.110;8.468;2023-08-01T03:14:25;16.80;99.90
22065;DHT22;11197;53.110;8.468;2023-08-01T03:16:51;16.80;99.90
22065;DHT22;11197;53.110;8.468;2023-08-01T03:19:17;16.70;99.90
22065;DHT22;11197;53.110;8.468;2023-08-01T03:21:42;16.70;99.90
22065;DHT22;11197;53.110;8.468;2023-08-01T03:24:08;16.70;99.90
22065;DHT22;11197;53.110;8.468;2023-08-01T03:26:37;16.70;99.90
22065;DHT22;11197;53.110;8.468;2023-08-01T03:29:03;16.70;99.90
22065;DHT22;11197;53.110;8.468;2023-08-01T03:31:31;16.70;99.90
22065;DHT22;11197;53.110;8.468;2023-08-01T03:33:57;16.70;99.90
22065;DHT22;11197;53.110;8.468;2023-08-01T03:36:25;16.80;99.90
22065;DHT22;11197;53.110;8.468;2023-08-01T03:38:51;16.80;99.90
22065;DHT22;11197;53.110;8.468;2023-08-01T03:41:17;16.80;99.90
22065;DHT22;11197;53.110;8.468;2023-08-01T03:43:43;16.70;99.90
22065;DHT22;11197;53.110;8.468;2023-08-01T03:46:09;16.80;99.90
22065;DHT22;11197;53.110;8.468;2023-08-01T03:48:35;16.70;99.90
22065;DHT22;11197;53.110;8.468;2023-08-01T03:51:00;16.80;99.90
22065;DHT22;11197;53.110;8.468;2023-08-01T03:53:28;16.70;99.90
22065;DHT22;11197;53.110;8.468;2023-08-01T03:55:55;16.70;99.90
22065;DHT22;11197;53.110;8.468;2023-08-01T03:58:32;16.60;99.90
22065;DHT22;11197;53.110;8.468;2023-08-01T04:01:01;16.70;99.90
22065;DHT22;11197;53.110;8.468;2023-08-01T04:03:26;16.60;99.90
22065;DHT22;11197;53.110;8.468;2023-08-01T04:05:54;16.60;99.90
22065;DHT22;11197;53.110;8.468;2023-08-01T04:08:22;16.70;99.90
22065;DHT22;11197;53.110;8.468;2023-08-01T04:10:49;16.70;99.90
22065;DHT22;11197;53.110;8.468;2023-08-01T04:13:16;16.70;99.90
22065;DHT22;11197;53.110;8.468;2023-08-01T04:15:42;16.70;99.90
22065;DHT22;11197;53.110;8.468;2023-08-01T04:18:09;16.70;99.90
22065;DHT22;11197;53.110;8.468;2023-08-01T04:20:35;16.70;99.90
22065;DHT22;11197;53.110;8.468;2023-08-01T04:23:01;16.60;99.90
22065;DHT22;11197;53.110;8.468;2023-08-01T04:25:28;16.50;99.90
22065;DHT22;11197;53.110;8.468;2023-08-01T04:27:54;16.50;99.90
22065;DHT22;11197;53.110;8.468;2023-08-01T04:30:21;16.50;99.90
22065;DHT22;11197;53.110;8.468;2023-08-01T04:32:47;16.50;99.90
22065;DHT22;11197;53.110;8.468;2023-08-01T04:35:13;16.50;99.90
22065;DHT22;11197;53.110;8.468;2023-08-01T04:37:40;16.50;99.90
22065;DHT22;11197;53.110;8.468;2023-08-01T04:40:07;16.50;99.90
22065;DHT22;11197;53.110;8.468;2023-08-01T04:42:33;16.50;99.90
22065;DHT22;11197;53.110;8.468;2023-08-01T04:44:58;16.50;99.90
22065;DHT22;11197;53.110;8.468;2023-08-01T04:47:24;16.40;99.90
22065;DHT22;11197;53.110;8.468;2023-08-01T04:49:50;16.50;99.90
22065;DHT22;11197;53.110;8.468;2023-08-01T04:52:15;16.50;99.90
22065;DHT22;11197;53.110;8.468;2023-08-01T04:54:41;16.50;99.90
22065;DHT22;11197;53.110;8.468;2023-08-01T04:57:07;16.50;99.90
22065;DHT22;11197;53.110;8.468;2023-08-01T04:59:37;16.40;99.90
22065;DHT22;11197;53.110;8.468;2023-08-01T05:02:04;16.50;99.90
22065;DHT22;11197;53.110;8.468;2023-08-01T05:04:31;16.50;99.90
22065;DHT22;11197;53.110;8.468;2023-08-01T05:06:56;16.40;99.90
22065;DHT22;11197;53.110;8.468;2023-08-01T05:09:22;16.50;99.90
22065;DHT22;11197;53.110;8.468;2023-08-01T05:11:48;16.50;99.90
22065;DHT22;11197;53.110;8.468;2023-08-01T05:14:14;16.50;99.90
22065;DHT22;11197;53.110;8.468;2023-08-01T05:16:39;16.50;99.90
22065;DHT22;11197;53.110;8.468;2023-08-01T05:19:06;16.50;99.90
22065;DHT22;11197;53.110;8.468;2023-08-01T05:21:32;16.40;99.90
22065;DHT22;11197;53.110;8.468;2023-08-01T05:23:58;16.40;99.90
22065;DHT22;11197;53.110;8.468;2023-08-01T05:26:24;16.40;99.90
22065;DHT22;11197;53.110;8.468;2023-08-01T05:28:50;16.40;99.90
22065;DHT22;11197;53.110;8.468;2023-08-01T05:31:16;16.40;99.90
22065;DHT22;11197;53.110;8.468;2023-08-01T05:33:41;16.50;99.90
22065;DHT22;11197;53.110;8.468;2023-08-01T05:36:08;16.40;99.90
22065;DHT22;11197;53.110;8.468;2023-08-01T05:38:34;16.40;99.90
22065;DHT22;11197;53.110;8.468;2023-08-01T05:41:00;16.40;99.90
22065;DHT22;11197;53.110;8.468;2023-08-01T05:43:27;16.40;99.90
22065;DHT22;11197;53.110;8.468;2023-08-01T05:45:52;16.40;99.90
22065;DHT22;11197;53.110;8.468;2023-08-01T05:48:18;16.50;99.90
22065;DHT22;11197;53.110;8.468;2023-08-01T05:50:44;16.50;99.90
22065;DHT22;11197;53.110;8.468;2023-08-01T05:53:09;16.60;99.90
22065;DHT22;11197;53.110;8.468;2023-08-01T05:55:36;16.60;99.90
22065;DHT22;11197;53.110;8.468;2023-08-01T05:58:05;16.60;99.90
22065;DHT22;11197;53.110;8.468;2023-08-01T06:00:30;16.60;99.90
22065;DHT22;11197;53.110;8.468;2023-08-01T06:02:56;16.70;99.90
22065;DHT22;11197;53.110;8.468;2023-08-01T06:05:22;16.70;99.90
22065;DHT22;11197;53.110;8.468;2023-08-01T06:07:51;16.70;99.90
22065;DHT22;11197;53.110;8.468;2023-08-01T06:10:17;16.70;99.90
22065;DHT22;11197;53.110;8.468;2023-08-01T06:12:44;16.60;99.90
22065;DHT22;11197;53.110;8.468;2023-08-01T06:15:10;16.70;99.90
22065;DHT22;11197;53.110;8.468;2023-08-01T06:17:36;16.70;99.90
22065;DHT22;11197;53.110;8.468;2023-08-01T06:20:02;16.70;99.90
22065;DHT22;11197;53.110;8.468;2023-08-01T06:22:30;16.70;99.90
22065;DHT22;11197;53.110;8.468;2023-08-01T06:24:56;16.70;99.90
22065;DHT22;11197;53.110;8.468;2023-08-01T06:27:22;16.70;99.90
22065;DHT22;11197;53.110;8.468;2023-08-01T06:29:47;16.80;99.90
22065;DHT22;11197;53.110;8.468;2023-08-01T06:32:13;16.90;99.90
22065;DHT22;11197;53.110;8.468;2023-08-01T06:34:39;16.90;99.90
22065;DHT22;11197;53.110;8.468;2023-08-01T06:37:08;17.00;99.90
22065;DHT22;11197;53.110;8.468;2023-08-01T06:39:35;16.90;99.90
22065;DHT22;11197;53.110;8.468;2023-08-01T06:42:01;16.90;99.90
22065;DHT22;11197;53.110;8.468;2023-08-01T06:44:26;16.90;99.90
22065;DHT22;11197;53.110;8.468;2023-08-01T06:46:52;16.90;99.90
22065;DHT22;11197;53.110;8.468;2023-08-01T06:49:18;16.90;99.90
22065;DHT22;11197;53.110;8.468;2023-08-01T06:51:44;16.90;99.90
22065;DHT22;11197;53.110;8.468;2023-08-01T06:54:09;16.90;99.90
22065;DHT22;11197;53.110;8.468;2023-08-01T06:56:35;16.90;99.90
22065;DHT22;11197;53.110;8.468;2023-08-01T06:59:01;16.90;99.90
22065;DHT22;11197;53.110;8.468;2023-08-01T07:01:27;16.90;99.90
22065;DHT22;11197;53.110;8.468;2023-08-01T07:03:54;16.90;99.90
22065;DHT22;11197;53.110;8.468;2023-08-01T07:06:22;16.90;99.90
22065;DHT22;11197;53.110;8.468;2023-08-01T07:08:48;16.90;99.90
22065;DHT22;11197;53.110;8.468;2023-08-01T07:11:15;16.90;99.90
22065;DHT22;11197;53.110;8.468;2023-08-01T07:13:42;16.90;99.90
22065;DHT22;11197;53.110;8.468;2023-08-01T07:16:09;16.90;99.90
22065;DHT22;11197;53.110;8.468;2023-08-01T07:18:35;16.90;99.90
22065;DHT22;11197;53.110;8.468;2023-08-01T07:21:04;16.90;99.90
22065;DHT22;11197;53.110;8.468;2023-08-01T07:23:31;16.90;99.90
22065;DHT22;11197;53.110;8.468;2023-08-01T07:25:56;16.90;99.90
22065;DHT22;11197;53.110;8.468;2023-08-01T07:28:22;16.80;99.90
22065;DHT22;11197;53.110;8.468;2023-08-01T07:30:57;16.90;99.90
22065;DHT22;11197;53.110;8.468;2023-08-01T07:33:23;16.90;99.90
22065;DHT22;11197;53.110;8.468;2023-08-01T07:35:49;16.90;99.90
22065;DHT22;11197;53.110;8.468;2023-08-01T07:38:14;16.90;99.90
22065;DHT22;11197;53.110;8.468;2023-08-01T07:40:40;16.90;99.90
22065;DHT22;11197;53.110;8.468;2023-08-01T07:43:06;17.00;99.90
22065;DHT22;11197;53.110;8.468;2023-08-01T07:45:33;17.20;99.90
22065;DHT22;11197;53.110;8.468;2023-08-01T07:48:00;17.20;99.90
22065;DHT22;11197;53.110;8.468;2023-08-01T07:50:26;17.30;99.90
22065;DHT22;11197;53.110;8.468;2023-08-01T07:52:52;17.30;99.90
22065;DHT22;11197;53.110;8.468;2023-08-01T07:55:19;17.40;99.90
22065;DHT22;11197;53.110;8.468;2023-08-01T07:57:48;17.40;99.90
22065;DHT22;11197;53.110;8.468;2023-08-01T08:00:14;17.40;99.90
22065;DHT22;11197;53.110;8.468;2023-08-01T08:02:45;17.50;99.90
22065;DHT22;11197;53.110;8.468;2023-08-01T08:05:11;17.50;99.90
22065;DHT22;11197;53.110;8.468;2023-08-01T08:07:37;17.50;99.90
22065;DHT22;11197;53.110;8.468;2023-08-01T08:10:04;17.60;99.90
22065;DHT22;11197;53.110;8.468;2023-08-01T08:12:31;17.60;99.90
22065;DHT22;11197;53.110;8.468;2023-08-01T08:14:58;17.60;99.90
22065;DHT22;11197;53.110;8.468;2023-08-01T08:17:24;17.60;99.90
22065;DHT22;11197;53.110;8.468;2023-08-01T08:19:49;17.60;99.90
22065;DHT22;11197;53.110;8.468;2023-08-01T08:22:15;17.60;99.90
22065;DHT22;11197;53.110;8.468;2023-08-01T08:24:41;17.60;99.90
22065;DHT22;11197;53.110;8.468;2023-08-01T08:27:07;17.70;99.90
22065;DHT22;11197;53.110;8.468;2023-08-01T08:29:34;17.70;99.90
22065;DHT22;11197;53.110;8.468;2023-08-01T08:32:02;17.80;99.90
22065;DHT22;11197;53.110;8.468;2023-08-01T08:34:30;17.80;99.90
22065;DHT22;11197;53.110;8.468;2023-08-01T08:36:58;17.80;99.90
22065;DHT22;11197;53.110;8.468;2023-08-01T08:39:24;18.00;99.90
22065;DHT22;11197;53.110;8.468;2023-08-01T08:41:52;18.00;99.90
22065;DHT22;11197;53.110;8.468;2023-08-01T08:44:19;18.00;99.90
22065;DHT22;11197;53.110;8.468;2023-08-01T08:46:51;18.00;99.90
22065;DHT22;11197;53.110;8.468;2023-08-01T08:49:21;18.10;99.90
22065;DHT22;11197;53.110;8.468;2023-08-01T08:51:49;18.10;99.90
22065;DHT22;11197;53.110;8.468;2023-08-01T08:54:16;18.10;99.90
22065;DHT22;11197;53.110;8.468;2023-08-01T08:56:43;18.20;99.90
22065;DHT22;11197;53.110;8.468;2023-08-01T08:59:09;18.20;99.90
22065;DHT22;11197;53.110;8.468;2023-08-01T09:01:39;18.20;99.90
22065;DHT22;11197;53.110;8.468;2023-08-01T09:04:05;18.30;99.90
22065;DHT22;11197;53.110;8.468;2023-08-01T09:06:40;18.30;99.90
22065;DHT22;11197;53.110;8.468;2023-08-01T09:09:11;18.40;99.90
22065;DHT22;11197;53.110;8.468;2023-08-01T09:11:51;18.40;99.90
22065;DHT22;11197;53.110;8.468;2023-08-01T09:14:18;18.50;99.90
22065;DHT22;11197;53.110;8.468;2023-08-01T09:16:44;18.60;99.90
22065;DHT22;11197;53.110;8.468;2023-08-01T09:19:11;18.60;99.90
22065;DHT22;11197;53.110;8.468;2023-08-01T09:21:41;18.60;99.90
22065;DHT22;11197;53.110;8.468;2023-08-01T09:24:11;18.60;99.90
22065;DHT22;11197;53.110;8.468;2023-08-01T09:26:37;18.60;99.90
22065;DHT22;11197;53.110;8.468;2023-08-01T09:29:03;18.60;99.90
22065;DHT22;11197;53.110;8.468;2023-08-01T09:31:30;18.60;99.90
22065;DHT22;11197;53.110;8.468;2023-08-01T09:33:56;18.50;99.90
22065;DHT22;11197;53.110;8.468;2023-08-01T09:36:23;18.40;99.90
22065;DHT22;11197;53.110;8.468;2023-08-01T09:38:49;18.40;99.90
22065;DHT22;11197;53.110;8.468;2023-08-01T09:41:18;18.40;99.90
22065;DHT22;11197;53.110;8.468;2023-08-01T09:43:46;18.30;99.90
22065;DHT22;11197;53.110;8.468;2023-08-01T09:46:12;18.30;99.90
22065;DHT22;11197;53.110;8.468;2023-08-01T09:48:39;18.30;99.90
22065;DHT22;11197;53.110;8.468;2023-08-01T09:51:10;18.30;99.90
22065;DHT22;11197;53.110;8.468;2023-08-01T09:53:53;18.20;99.90
22065;DHT22;11197;53.110;8.468;2023-08-01T09:56:24;18.20;99.90
22065;DHT22;11197;53.110;8.468;2023-08-01T09:58:54;18.20;99.90
22065;DHT22;11197;53.110;8.468;2023-08-01T10:01:22;18.20;99.90
22065;DHT22;11197;53.110;8.468;2023-08-01T10:03:51;18.20;99.90
22065;DHT22;11197;53.110;8.468;2023-08-01T10:06:20;18.20;99.90
22065;DHT22;11197;53.110;8.468;2023-08-01T10:08:49;18.30;99.90
22065;DHT22;11197;53.110;8.468;2023-08-01T10:11:17;18.30;99.90
22065;DHT22;11197;53.110;8.468;2023-08-01T10:13:43;18.40;99.90
22065;DHT22;11197;53.110;8.468;2023-08-01T10:16:10;18.40;99.90
22065;DHT22;11197;53.110;8.468;2023-08-01T10:18:37;18.40;99.90
22065;DHT22;11197;53.110;8.468;2023-08-01T10:21:14;18.50;99.90
22065;DHT22;11197;53.110;8.468;2023-08-01T10:23:41;18.50;99.90
22065;DHT22;11197;53.110;8.468;2023-08-01T10:26:08;18.40;99.90
22065;DHT22;11197;53.110;8.468;2023-08-01T10:28:39;18.40;99.90
22065;DHT22;11197;53.110;8.468;2023-08-01T10:31:17;18.40;99.90
22065;DHT22;11197;53.110;8.468;2023-08-01T10:33:45;18.40;99.90
22065;DHT22;11197;53.110;8.468;2023-08-01T10:36:22;18.40;99.90
22065;DHT22;11197;53.110;8.468;2023-08-01T10:38:54;18.50;99.90
22065;DHT22;11197;53.110;8.468;2023-08-01T10:41:29;18.50;99.90
22065;DHT22;11197;53.110;8.468;2023-08-01T10:44:15;18.50;99.90
22065;DHT22;11197;53.110;8.468;2023-08-01T10:46:59;18.60;99.90
22065;DHT22;11197;53.110;8.468;2023-08-01T10:49:41;18.60;99.90
22065;DHT22;11197;53.110;8.468;2023-08-01T10:52:22;18.70;99.90
22065;DHT22;11197;53.110;8.468;2023-08-01T10:55:01;18.80;99.90
22065;DHT22;11197;53.110;8.468;2023-08-01T10:57:29;18.80;99.90
22065;DHT22;11197;53.110;8.468;2023-08-01T10:59:58;18.80;99.90
22065;DHT22;11197;53.110;8.468;2023-08-01T11:02:26;18.90;99.90
22065;DHT22;11197;53.110;8.468;2023-08-01T11:07:22;18.90;99.90
22065;DHT22;11197;53.110;8.468;2023-08-01T11:09:47;18.90;99.90
22065;DHT22;11197;53.110;8.468;2023-08-01T11:12:13;18.90;99.90
22065;DHT22;11197;53.110;8.468;2023-08-01T11:14:39;18.80;99.90
22065;DHT22;11197;53.110;8.468;2023-08-01T11:17:05;18.80;99.90
22065;DHT22;11197;53.110;8.468;2023-08-01T11:19:30;18.80;99.90
22065;DHT22;11197;53.110;8.468;2023-08-01T11:21:57;18.70;99.90
22065;DHT22;11197;53.110;8.468;2023-08-01T11:24:24;18.70;99.90
22065;DHT22;11197;53.110;8.468;2023-08-01T11:26:51;18.70;99.90
22065;DHT22;11197;53.110;8.468;2023-08-01T11:29:19;18.70;99.90
22065;DHT22;11197;53.110;8.468;2023-08-01T11:31:59;18.70;99.90
22065;DHT22;11197;53.110;8.468;2023-08-01T11:34:25;18.70;99.90
22065;DHT22;11197;53.110;8.468;2023-08-01T11:36:52;18.70;99.90
22065;DHT22;11197;53.110;8.468;2023-08-01T11:39:18;18.70;99.90
22065;DHT22;11197;53.110;8.468;2023-08-01T11:41:45;18.70;99.90
22065;DHT22;11197;53.110;8.468;2023-08-01T11:44:11;18.70;99.90
22065;DHT22;11197;53.110;8.468;2023-08-01T11:46:38;18.70;99.90
22065;DHT22;11197;53.110;8.468;2023-08-01T11:49:05;18.70;99.90
22065;DHT22;11197;53.110;8.468;2023-08-01T11:51:39;18.70;99.90
22065;DHT22;11197;53.110;8.468;2023-08-01T11:54:04;18.70;99.90
22065;DHT22;11197;53.110;8.468;2023-08-01T11:56:32;18.70;99.90
22065;DHT22;11197;53.110;8.468;2023-08-01T11:59:06;18.70;99.90
22065;DHT22;11197;53.110;8.468;2023-08-01T12:01:38;18.80;99.90
22065;DHT22;11197;53.110;8.468;2023-08-01T12:04:04;18.90;99.90
22065;DHT22;11197;53.110;8.468;2023-08-01T12:06:32;18.80;99.90
22065;DHT22;11197;53.110;8.468;2023-08-01T12:09:13;18.90;99.90
22065;DHT22;11197;53.110;8.468;2023-08-01T12:11:40;18.80;99.90
22065;DHT22;11197;53.110;8.468;2023-08-01T12:14:15;18.80;99.90
22065;DHT22;11197;53.110;8.468;2023-08-01T12:16:42;18.70;99.90
22065;DHT22;11197;53.110;8.468;2023-08-01T12:19:10;18.60;99.90
22065;DHT22;11197;53.110;8.468;2023-08-01T12:21:37;18.50;99.90
22065;DHT22;11197;53.110;8.468;2023-08-01T12:24:03;18.50;99.90
22065;DHT22;11197;53.110;8.468;2023-08-01T12:26:29;18.40;99.90
22065;DHT22;11197;53.110;8.468;2023-08-01T12:28:55;18.40;99.90
22065;DHT22;11197;53.110;8.468;2023-08-01T12:31:22;18.40;99.90
22065;DHT22;11197;53.110;8.468;2023-08-01T12:33:48;18.50;99.90
22065;DHT22;11197;53.110;8.468;2023-08-01T12:36:14;18.50;99.90
22065;DHT22;11197;53.110;8.468;2023-08-01T12:38:40;18.60;99.90
22065;DHT22;11197;53.110;8.468;2023-08-01T12:41:07;18.60;99.90
22065;DHT22;11197;53.110;8.468;2023-08-01T12:43:33;18.70;99.90
22065;DHT22;11197;53.110;8.468;2023-08-01T12:45:59;18.70;99.90
22065;DHT22;11197;53.110;8.468;2023-08-01T12:48:27;18.70;99.90
22065;DHT22;11197;53.110;8.468;2023-08-01T12:50:54;18.80;99.90
22065;DHT22;11197;53.110;8.468;2023-08-01T12:53:22;18.80;99.90
22065;DHT22;11197;53.110;8.468;2023-08-01T12:55:50;18.70;99.90
22065;DHT22;11197;53.110;8.468;2023-08-01T12:58:17;18.70;99.90
22065;DHT22;11197;53.110;8.468;2023-08-01T13:00:43;18.60;99.90
22065;DHT22;11197;53.110;8.468;2023-08-01T13:03:10;18.50;99.90
22065;DHT22;11197;53.110;8.468;2023-08-01T13:05:42;18.50;99.90
22065;DHT22;11197;53.110;8.468;2023-08-01T13:08:08;18.50;99.90
22065;DHT22;11197;53.110;8.468;2023-08-01T13:10:36;18.50;99.90
22065;DHT22;11197;53.110;8.468;2023-08-01T13:13:03;18.60;99.90
22065;DHT22;11197;53.110;8.468;2023-08-01T13:15:29;18.60;99.90
22065;DHT22;11197;53.110;8.468;2023-08-01T13:17:56;18.60;99.90
22065;DHT22;11197;53.110;8.468;2023-08-01T13:20:22;18.60;99.90
22065;DHT22;11197;53.110;8.468;2023-08-01T13:22:55;18.70;99.90
22065;DHT22;11197;53.110;8.468;2023-08-01T13:25:23;18.70;99.90
22065;DHT22;11197;53.110;8.468;2023-08-01T13:27:53;18.70;99.90
22065;DHT22;11197;53.110;8.468;2023-08-01T13:30:21;18.70;99.90
22065;DHT22;11197;53.110;8.468;2023-08-01T13:32:47;18.70;99.90
22065;DHT22;11197;53.110;8.468;2023-08-01T13:35:14;18.70;99.90
22065;DHT22;11197;53.110;8.468;2023-08-01T13:37:40;18.70;99.90
22065;DHT22;11197;53.110;8.468;2023-08-01T13:40:06;18.80;99.90
22065;DHT22;11197;53.110;8.468;2023-08-01T13:42:32;18.80;99.90
22065;DHT22;11197;53.110;8.468;2023-08-01T13:44:59;18.90;99.90
22065;DHT22;11197;53.110;8.468;2023-08-01T13:47:25;18.90;99.90
22065;DHT22;11197;53.110;8.468;2023-08-01T13:49:50;19.00;99.90
22065;DHT22;11197;53.110;8.468;2023-08-01T13:52:17;19.20;99.90
22065;DHT22;11197;53.110;8.468;2023-08-01T13:54:44;19.20;99.90
22065;DHT22;11197;53.110;8.468;2023-08-01T13:57:09;19.40;99.90
22065;DHT22;11197;53.110;8.468;2023-08-01T13:59:37;19.50;99.90
22065;DHT22;11197;53.110;8.468;2023-08-01T14:02:03;19.60;99.90
22065;DHT22;11197;53.110;8.468;2023-08-01T14:04:46;19.60;99.90
22065;DHT22;11197;53.110;8.468;2023-08-01T14:07:15;19.70;99.90
22065;DHT22;11197;53.110;8.468;2023-08-01T14:09:41;19.70;99.90
22065;DHT22;11197;53.110;8.468;2023-08-01T14:12:07;19.60;99.90
22065;DHT22;11197;53.110;8.468;2023-08-01T14:14:35;19.50;99.90
22065;DHT22;11197;53.110;8.468;2023-08-01T14:17:03;19.50;99.90
22065;DHT22;11197;53.110;8.468;2023-08-01T14:19:30;19.50;99.90
22065;DHT22;11197;53.110;8.468;2023-08-01T14:21:58;19.50;99.90
22065;DHT22;11197;53.110;8.468;2023-08-01T14:24:24;19.60;99.90
22065;DHT22;11197;53.110;8.468;2023-08-01T14:26:50;19.60;99.90
22065;DHT22;11197;53.110;8.468;2023-08-01T14:29:20;19.70;99.90
22065;DHT22;11197;53.110;8.468;2023-08-01T14:31:51;19.70;99.90
22065;DHT22;11197;53.110;8.468;2023-08-01T14:34:17;19.80;99.90
22065;DHT22;11197;53.110;8.468;2023-08-01T14:36:42;19.80;99.90
22065;DHT22;11197;53.110;8.468;2023-08-01T14:39:08;19.90;99.90
22065;DHT22;11197;53.110;8.468;2023-08-01T14:41:34;19.80;99.90
22065;DHT22;11197;53.110;8.468;2023-08-01T14:44:00;19.80;99.90
22065;DHT22;11197;53.110;8.468;2023-08-01T14:46:26;19.70;99.90
22065;DHT22;11197;53.110;8.468;2023-08-01T14:48:54;19.50;99.90
22065;DHT22;11197;53.110;8.468;2023-08-01T14:51:23;19.50;99.90
22065;DHT22;11197;53.110;8.468;2023-08-01T14:53:49;19.50;99.90
22065;DHT22;11197;53.110;8.468;2023-08-01T14:56:16;19.50;99.90
22065;DHT22;11197;53.110;8.468;2023-08-01T14:58:43;19.60;99.90
22065;DHT22;11197;53.110;8.468;2023-08-01T15:01:17;19.60;99.90
22065;DHT22;11197;53.110;8.468;2023-08-01T15:03:44;19.60;99.90
22065;DHT22;11197;53.110;8.468;2023-08-01T15:06:10;19.50;99.90
22065;DHT22;11197;53.110;8.468;2023-08-01T15:08:38;19.40;99.90
22065;DHT22;11197;53.110;8.468;2023-08-01T15:11:05;19.40;99.90
22065;DHT22;11197;53.110;8.468;2023-08-01T15:13:32;19.40;99.90
22065;DHT22;11197;53.110;8.468;2023-08-01T15:15:58;19.50;99.90
22065;DHT22;11197;53.110;8.468;2023-08-01T15:18:24;19.50;99.90
22065;DHT22;11197;53.110;8.468;2023-08-01T15:20:49;19.50;99.90
22065;DHT22;11197;53.110;8.468;2023-08-01T15:23:15;19.60;99.90
22065;DHT22;11197;53.110;8.468;2023-08-01T15:25:41;19.50;99.90
22065;DHT22;11197;53.110;8.468;2023-08-01T15:28:06;19.60;99.90
22065;DHT22;11197;53.110;8.468;2023-08-01T15:30:32;19.60;99.90
22065;DHT22;11197;53.110;8.468;2023-08-01T15:32:58;19.50;99.90
22065;DHT22;11197;53.110;8.468;2023-08-01T15:35:29;19.50;99.90